Latest Coastal Weather Observations for Ulladulla

IDN60701

Issued at 12:32 am EST Thursday 30 June 2016 (issued every 10 minutes, with the page automatically refreshed every 10 minutes)

About coastal observations | Map of coastal stations | Coastal observations for NSW | Marine services | Other Formats
Station Details ID: 069138 Name: ULLADULLA AWS Lat: -35.36 Lon: 150.48 Height: 35.7 m
Data from the previous 72 hours. | See also: Recent months at Ulladulla
Date/Time
EST
Temp
°C
Wind Pressure Rain since
9am
mm
Weather Cloud Vis
km
Sea
Height
m
Swell
Dir  Spd
kts
Gust
kts
hPa Trend Height
m
Period
s
Dir
30/12:30am 10.8 NNW 5 7 1022.4 - 0.0 - - - - - - -
30/12:00am 10.3 NNW 3 5 1022.8 - 0.0 - - - - - - -
 
Date/Time
EST
Temp
°C
Wind Pressure Rain since
9am
mm
Weather Cloud Vis
km
Sea
Height
m
Swell
Dir  Spd
kts
Gust
kts
hPa Trend Height
m
Period
s
Dir
29/11:30pm 10.0 NNW 3 5 1023.3 - 0.0 - - - - - - -
29/11:00pm 10.8 NNW 4 6 1023.7 - 0.0 - - - - - - -
29/10:30pm 10.8 NNW 4 7 1023.9 - 0.0 - - - - - - -
29/10:00pm 10.9 NNW 4 6 1024.2 - 0.0 - - - - - - -
29/09:30pm 10.9 NNW 4 7 1024.7 - 0.0 - - - - - - -
29/09:00pm 11.0 NNW 4 5 1024.9 - 0.0 - - - - - - -
29/08:30pm 11.4 NW 4 5 1025.0 - 0.0 - - - - - - -
29/08:00pm 11.5 NW 4 5 1025.1 - 0.0 - - - - - - -
29/07:30pm 11.5 S 3 4 1025.1 - 0.0 - - - - - - -
29/07:00pm 11.5 S 3 4 1025.3 - 0.0 - - - - - - -
29/06:30pm 12.0 S 3 4 1025.4 - 0.0 - - - - - - -
29/06:00pm 11.7 CALM 0 0 1025.3 - 0.0 - - - - - - -
29/05:30pm 12.4 CALM 0 0 1025.2 - 0.0 - - - - - - -
29/05:00pm 13.4 CALM 0 0 1025.2 - 0.0 - - - - - - -
29/04:30pm 15.5 CALM 0 0 1025.3 - 0.0 - - - - - - -
29/04:00pm 15.8 CALM 0 0 1025.2 - 0.0 - - - - - - -
29/03:30pm 16.1 SSE 1 3 1025.1 - 0.0 - - - - - - -
29/03:00pm 16.7 SSE 1 1 1025.2 - 0.0 - - - - - - -
29/02:30pm 16.5 S 3 5 1025.2 - 0.0 - - - - - - -
29/02:00pm 16.5 S 4 6 1025.4 - 0.0 - - - - - - -
29/01:30pm 16.8 S 3 5 1025.5 - 0.0 - - - - - - -
29/01:00pm 16.7 S 4 7 1025.8 - 0.0 - - - - - - -
29/12:30pm 16.6 S 3 5 1026.1 - 0.0 - - - - - - -
29/12:00pm 16.6 S 3 5 1026.5 - 0.0 - - - - - - -
29/11:30am 16.7 WSW 4 6 1027.0 - 0.0 - - - - - - -
29/11:00am 16.3 WSW 3 5 1027.5 - 0.0 - - - - - - -
29/10:30am 16.4 WSW 4 7 1027.8 - 0.0 - - - - - - -
29/10:00am 15.9 WNW 2 5 1027.8 - 0.0 - - - - - - -
29/09:30am 15.8 W 4 5 1027.7 - 0.0 - - - - - - -
29/09:00am 14.3 W 4 5 1027.4 - 0.0 - - - - - - -
29/08:30am 13.2 W 4 6 1027.3 - 0.0 - - - - - - -
29/08:00am 12.0 W 4 6 1027.2 - 0.0 - - - - - - -
29/07:30am 10.4 W 4 6 1026.9 - 0.0 - - - - - - -
29/07:00am 10.0 W 4 5 1026.7 - 0.0 - - - - - - -
29/06:30am 9.6 W 4 6 1026.6 - 0.0 - - - - - - -
29/06:00am 9.1 W 4 6 1026.4 - 0.0 - - - - - - -
29/05:30am 9.3 W 4 6 1026.1 - 0.0 - - - - - - -
29/05:00am 8.8 W 4 6 1025.9 - 0.0 - - - - - - -
29/04:30am 8.8 WNW 4 5 1025.8 - 0.0 - - - - - - -
29/04:00am 8.1 WNW 3 5 1025.8 - 0.0 - - - - - - -
29/03:30am 7.0 NNW 2 3 1025.7 - 0.0 - - - - - - -
29/03:00am 7.8 CALM 0 0 1025.8 - 0.0 - - - - - - -
29/02:30am 7.8 NW 1 2 1025.7 - 0.0 - - - - - - -
29/02:00am 9.2 NW 3 4 1025.7 - 0.0 - - - - - - -
29/01:30am 10.4 NW 5 7 1025.8 - 0.0 - - - - - - -
29/01:00am 10.4 NW 4 6 1025.8 - 0.0 - - - - - - -
29/12:30am 10.7 WNW 4 7 1025.8 - 0.0 - - - - - - -
29/12:00am 9.8 NW 4 5 1025.8 - 0.0 - - - - - - -
 
Date/Time
EST
Temp
°C
Wind Pressure Rain since
9am
mm
Weather Cloud Vis
km
Sea
Height
m
Swell
Dir  Spd
kts
Gust
kts
hPa Trend Height
m
Period
s
Dir
28/11:30pm 10.3 NW 4 6 1026.0 - 0.0 - - - - - - -
28/11:00pm 10.6 NW 5 7 1026.2 - 0.0 - - - - - - -
28/10:30pm 10.6 WNW 4 7 1026.3 - 0.0 - - - - - - -
28/10:00pm 10.3 NW 4 6 1026.1 - 0.0 - - - - - - -
28/09:30pm 10.1 NW 4 7 1026.0 - 0.0 - - - - - - -
28/09:00pm 10.5 NW 4 6 1025.9 - 0.0 - - - - - - -
28/08:30pm 10.4 NW 4 6 1025.8 - 0.0 - - - - - - -
28/08:00pm 10.6 WNW 3 5 1025.8 - 0.0 - - - - - - -
28/07:30pm 11.3 WNW 4 6 1025.7 - 0.0 - - - - - - -
28/07:00pm 10.5 NW 4 5 1025.4 - 0.0 - - - - - - -
28/06:30pm 9.9 NW 3 4 1025.2 - 0.0 - - - - - - -
28/06:00pm 10.7 S 1 2 1024.9 - 0.0 - - - - - - -
28/05:30pm 10.9 CALM 0 0 1024.4 - 0.0 - - - - - - -
28/05:00pm 11.9 CALM 0 2 1024.0 - 0.0 - - - - - - -
28/04:30pm 13.4 S 2 2 1023.9 - 0.0 - - - - - - -
28/04:00pm 14.4 S 2 3 1023.7 - 0.0 - - - - - - -
28/03:30pm 14.7 S 3 5 1023.4 - 0.0 - - - - - - -
28/03:00pm 15.3 WSW 3 5 1023.2 - 0.0 - - - - - - -
28/02:30pm 15.1 SW 5 8 1023.1 - 0.0 - - - - - - -
28/02:00pm 15.5 SW 4 9 1022.9 - 0.0 - - - - - - -
28/01:30pm 15.0 SSW 7 10 1022.7 - 0.0 - - - - - - -
28/01:00pm 15.0 SW 7 11 1022.7 - 0.0 - - - - - - -
28/12:30pm 15.0 SW 6 10 1022.9 - 0.0 - - - - - - -
28/12:00pm 14.9 SW 6 10 1023.2 - 0.0 - - - - - - -
28/11:30am 14.4 SW 6 10 1023.3 - 0.0 - - - - - - -
28/11:00am 14.2 WSW 7 10 1023.6 - 0.0 - - - - - - -
28/10:30am 13.5 WSW 7 11 1023.7 - 0.0 - - - - - - -
28/10:00am 13.1 WSW 6 10 1023.7 - 0.0 - - - - - - -
28/09:30am 12.4 W 5 8 1023.3 - 0.0 - - - - - - -
28/09:00am 12.0 W 4 7 1023.1 - 11.8 - - - - - - -
28/08:30am 10.4 W 4 7 1022.8 - 11.8 - - - - - - -
28/08:00am 8.9 W 4 7 1022.3 - 11.8 - - - - - - -
28/07:30am 7.9 W 5 7 1021.9 - 11.8 - - - - - - -
28/07:00am 7.2 W 5 7 1021.6 - 11.8 - - - - - - -
28/06:30am 7.3 W 4 7 1021.3 - 11.8 - - - - - - -
28/06:00am 7.3 W 5 7 1020.6 - 11.8 - - - - - - -
28/05:30am 7.3 W 5 7 1020.1 - 11.8 - - - - - - -
28/05:00am 7.1 W 5 6 1019.8 - 11.8 - - - - - - -
28/04:30am 7.4 W 5 6 1019.4 - 11.8 - - - - - - -
28/04:00am 7.8 W 5 7 1019.1 - 11.8 - - - - - - -
28/03:30am 8.0 WSW 5 7 1018.8 - 11.8 - - - - - - -
28/03:00am 8.3 WSW 5 7 1018.7 - 11.8 - - - - - - -
28/02:30am 8.6 WSW 6 8 1018.7 - 11.8 - - - - - - -
28/02:00am 8.8 WSW 6 8 1018.6 - 11.8 - - - - - - -
28/01:30am 9.1 WSW 6 8 1018.4 - 11.8 - - - - - - -
28/01:00am 9.4 WSW 6 10 1018.2 - 11.8 - - - - - - -
28/12:30am 9.2 WSW 6 8 1018.1 - 11.8 - - - - - - -
28/12:00am 9.8 WSW 6 9 1018.0 - 11.8 - - - - - - -
 
Date/Time
EST
Temp
°C
Wind Pressure Rain since
9am
mm
Weather Cloud Vis
km
Sea
Height
m
Swell
Dir  Spd
kts
Gust
kts
hPa Trend Height
m
Period
s
Dir
27/11:30pm 10.0 WSW 6 9 1018.0 - 11.8 - - - - - - -
27/11:00pm 10.1 WSW 7 11 1017.9 - 11.8 - - - - - - -
27/10:30pm 9.9 WSW 7 11 1017.9 - 11.8 - - - - - - -
27/10:00pm 9.7 WSW 7 10 1017.8 - 11.8 - - - - - - -
27/09:30pm 9.6 WSW 6 9 1017.7 - 11.8 - - - - - - -
27/09:00pm 9.7 WSW 7 11 1017.4 - 11.8 - - - - - - -
27/08:30pm 9.2 WSW 7 12 1017.1 - 11.8 - - - - - - -
27/08:00pm 9.1 WSW 7 11 1017.0 - 11.8 - - - - - - -
27/07:30pm 9.2 WSW 7 12 1016.7 - 11.8 - - - - - - -
27/07:00pm 9.0 WSW 7 12 1016.4 - 11.8 - - - - - - -
27/06:30pm 9.3 WSW 7 11 1015.9 - 11.8 - - - - - - -
27/06:00pm 9.4 WSW 7 10 1015.4 - 11.8 Recent precip. - - - - - -
27/05:30pm 9.6 W 5 8 1015.1 - 11.8 - - - - - - -
27/05:00pm 9.7 W 3 5 1015.0 - 11.6 - - - - - - -
27/04:30pm 9.6 WSW 4 9 1014.7 - 9.4 - - - - - - -
27/04:00pm 9.5 WSW 5 8 1014.5 - 8.4 - - - - - - -
27/03:30pm 9.5 WSW 7 10 1014.2 - 8.0 - - - - - - -
27/03:00pm 9.4 WSW 7 11 1014.1 - 7.4 Rain - - - - - -
27/02:30pm 9.6 SW 8 13 1014.1 - 6.4 - - - - - - -
27/02:00pm 10.1 SSW 8 13 1013.8 - 4.4 - - - - - - -
27/01:30pm 10.4 S 10 13 1013.7 - 1.8 - - - - - - -
27/01:06pm 12.4 SSW 16 27 1013.0 - 0.0 - - - - - - -
27/01:00pm 12.7 SSW 14 21 1013.1 - 0.0 - - - - - - -
27/12:30pm 11.7 SW 9 16 1013.3 - 0.0 - - - - - - -
27/12:00pm 11.5 WSW 7 11 1013.5 - 0.0 - - - - - - -
27/11:30am 11.4 WSW 6 9 1014.0 - 0.0 - - - - - - -
27/11:00am 11.1 WSW 5 8 1014.2 - 0.0 - - - - - - -
27/10:30am 10.7 W 4 7 1014.4 - 0.0 - - - - - - -
27/10:00am 10.3 W 4 7 1014.5 - 0.0 - - - - - - -
27/09:30am 10.2 WNW 4 7 1014.7 - 0.0 - - - - - - -
27/09:00am 10.1 WNW 4 7 1014.7 - 0.0 - - - - - - -
27/08:30am 9.9 W 4 7 1014.4 - 0.0 - - - - - - -
27/08:00am 9.7 W 4 6 1014.2 - 0.0 - - - - - - -
27/07:30am 9.8 WNW 4 7 1014.0 - 0.0 - - - - - - -
27/07:00am 9.7 W 3 5 1013.8 - 0.0 - - - - - - -
27/06:30am 10.1 WNW 4 7 1013.8 - 0.0 - - - - - - -
27/06:00am 10.2 WNW 3 6 1013.7 - 0.0 - - - - - - -
27/05:30am 10.2 WNW 4 6 1013.5 - 0.0 - - - - - - -
27/05:00am 10.0 WNW 4 8 1013.3 - 0.0 - - - - - - -
27/04:30am 9.9 WNW 3 5 1013.1 - 0.0 - - - - - - -
27/04:00am 9.9 NW 3 5 1013.3 - 0.0 - - - - - - -
27/03:30am 9.9 NW 3 5 1013.6 - 0.0 - - - - - - -
27/03:00am 9.5 NW 2 5 1013.9 - 0.0 - - - - - - -
27/02:30am 9.5 WNW 2 4 1014.2 - 0.0 - - - - - - -
27/02:00am 9.9 WNW 2 4 1014.7 - 0.0 - - - - - - -
27/01:30am 10.3 WNW 3 4 1014.6 - 0.0 - - - - - - -
27/01:00am 10.3 NW 2 2 1014.5 - 0.0 - - - - - - -

Other Formats:

Comma delimited format used in spreadsheet applications
http://www.bom.gov.au/fwo/IDN60701/IDN60701.94938.axf

JavaScript Object Notation format (JSON) in row-major order
http://www.bom.gov.au/fwo/IDN60701/IDN60701.94938.json